Time;durP1;ratioP1;P1;durP2;ratioP2;P2;SDS_P1;SDS_P2;PMS_P1;PMS_P2;Temp;Humidity;BMP_temperature;BMP_pressure;BME280_temperature;BME280_humidity;BME280_pressure;Samples;Min_cycle;Max_cycle;Signal;HPM_P1;HPM_P2
2021/03/04 00:00:22;;;;;;;24.30;14.98;;;8.80;99.90;;;;;;5115010;28;20119;-75
2021/03/04 00:02:48;;;;;;;28.75;14.77;;;8.80;99.90;;;;;;5114634;28;20041;-75
2021/03/04 00:05:15;;;;;;;23.88;15.25;;;8.90;99.90;;;;;;5115011;28;20398;-74
2021/03/04 00:07:41;;;;;;;26.77;15.40;;;8.90;99.90;;;;;;5114514;28;20043;-75
2021/03/04 00:10:16;;;;;;;30.90;13.77;;;8.90;99.90;;;;;;5115341;28;20044;-75
2021/03/04 00:12:43;;;;;;;21.73;13.48;;;8.80;99.90;;;;;;5115005;28;20039;-75
2021/03/04 00:15:10;;;;;;;22.98;13.38;;;8.80;99.90;;;;;;5115058;28;20031;-75
2021/03/04 00:17:37;;;;;;;27.10;14.43;;;8.80;99.90;;;;;;5115463;28;20078;-75
2021/03/04 00:20:08;;;;;;;26.33;14.18;;;8.90;99.90;;;;;;5114777;28;20028;-75
2021/03/04 00:22:35;;;;;;;27.55;14.13;;;8.90;99.90;;;;;;5115327;28;20043;-75
2021/03/04 00:25:03;;;;;;;24.45;15.15;;;8.80;99.90;;;;;;5115163;28;20046;-75
2021/03/04 00:27:29;;;;;;;24.42;14.63;;;8.90;99.90;;;;;;5114558;28;20139;-75
2021/03/04 00:29:55;;;;;;;26.75;15.20;;;8.90;99.90;;;;;;5114791;28;20115;-75
2021/03/04 00:32:21;;;;;;;22.20;13.75;;;8.90;99.90;;;;;;5114960;28;20047;-75
2021/03/04 00:34:47;;;;;;;22.70;14.57;;;8.90;99.90;;;;;;5114471;28;20581;-75
2021/03/04 00:37:12;;;;;;;26.17;14.88;;;8.90;99.90;;;;;;5115043;28;20148;-75
2021/03/04 00:39:38;;;;;;;29.17;15.25;;;8.90;99.90;;;;;;5114927;28;20106;-75
2021/03/04 00:42:05;;;;;;;24.95;15.10;;;8.90;99.90;;;;;;5114502;28;20043;-75
2021/03/04 00:44:31;;;;;;;21.77;14.35;;;8.90;99.90;;;;;;5114664;28;20566;-75
2021/03/04 00:46:56;;;;;;;24.77;14.75;;;8.90;99.90;;;;;;5114559;28;20090;-75
2021/03/04 00:49:22;;;;;;;23.17;13.93;;;8.90;99.90;;;;;;5114705;28;20088;-75
2021/03/04 00:51:48;;;;;;;32.33;16.90;;;8.80;99.90;;;;;;5115280;28;20043;-75
2021/03/04 00:54:14;;;;;;;25.05;15.43;;;8.80;99.90;;;;;;5114310;28;20040;-75
2021/03/04 00:56:40;;;;;;;31.25;16.75;;;8.80;99.90;;;;;;5114641;28;20074;-75
2021/03/04 00:59:06;;;;;;;25.10;16.23;;;8.80;99.90;;;;;;5096483;28;20077;-75
2021/03/04 01:01:32;;;;;;;23.02;15.25;;;8.80;99.90;;;;;;5114449;28;20039;-75
2021/03/04 01:03:58;;;;;;;24.50;16.10;;;8.80;99.90;;;;;;5114448;28;20035;-75
2021/03/04 01:06:23;;;;;;;25.90;15.07;;;8.80;99.90;;;;;;5114073;28;20050;-75
2021/03/04 01:08:49;;;;;;;25.15;16.48;;;8.80;99.90;;;;;;5113927;28;20043;-75
2021/03/04 01:11:15;;;;;;;32.33;16.42;;;8.80;99.90;;;;;;5114430;28;20035;-75
2021/03/04 01:13:42;;;;;;;28.83;15.25;;;8.80;99.90;;;;;;5114280;28;20027;-75
2021/03/04 01:16:09;;;;;;;24.35;14.73;;;8.80;99.90;;;;;;5117835;28;20057;-75
2021/03/04 01:18:35;;;;;;;23.13;14.18;;;8.80;99.90;;;;;;5099486;28;20143;-75
2021/03/04 01:21:03;;;;;;;22.30;14.68;;;8.80;99.90;;;;;;5117787;28;20512;-75
2021/03/04 01:23:29;;;;;;;23.50;15.02;;;8.80;99.90;;;;;;5117876;28;20375;-75
2021/03/04 01:25:55;;;;;;;27.38;14.40;;;8.80;99.90;;;;;;5117896;28;20038;-75
2021/03/04 01:28:21;;;;;;;26.92;15.32;;;8.80;99.90;;;;;;5116993;28;20039;-75
2021/03/04 01:30:46;;;;;;;23.30;14.50;;;8.80;99.90;;;;;;5114035;28;20051;-75
2021/03/04 01:33:12;;;;;;;29.15;15.90;;;8.80;99.90;;;;;;5115651;28;20249;-75
2021/03/04 01:35:38;;;;;;;28.50;15.23;;;8.80;99.90;;;;;;5115605;28;20078;-75
2021/03/04 01:38:04;;;;;;;29.15;15.60;;;8.90;99.90;;;;;;5117160;28;20039;-75
2021/03/04 01:40:30;;;;;;;24.10;14.90;;;8.90;99.90;;;;;;5117341;28;20092;-75
2021/03/04 01:42:56;;;;;;;29.20;16.25;;;8.80;99.90;;;;;;5117425;28;20498;-75
2021/03/04 01:45:21;;;;;;;25.77;14.63;;;8.90;99.90;;;;;;5117416;28;20067;-75
2021/03/04 01:47:54;;;;;;;28.02;15.88;;;8.90;99.90;;;;;;5117660;28;20040;-75
2021/03/04 01:50:21;;;;;;;30.73;16.85;;;8.90;99.90;;;;;;5117019;28;20040;-75
2021/03/04 01:52:47;;;;;;;36.92;16.27;;;8.90;99.90;;;;;;5116946;28;20518;-75
2021/03/04 01:55:16;;;;;;;31.67;16.73;;;8.80;99.90;;;;;;5116822;28;20039;-75
2021/03/04 01:57:44;;;;;;;27.60;15.43;;;8.90;99.90;;;;;;5117005;28;20047;-75
2021/03/04 02:00:10;;;;;;;27.75;16.55;;;8.80;99.90;;;;;;5117116;28;20043;-75
2021/03/04 02:02:36;;;;;;;22.67;14.60;;;8.80;99.90;;;;;;5117198;28;20069;-75
2021/03/04 02:05:14;;;;;;;31.70;14.45;;;8.90;99.90;;;;;;5117119;28;20070;-75
2021/03/04 02:07:59;;;;;;;23.13;15.20;;;8.80;99.90;;;;;;5116386;28;20047;-75
2021/03/04 02:10:46;;;;;;;28.15;14.57;;;8.80;99.90;;;;;;5117200;28;20040;-75
2021/03/04 02:13:19;;;;;;;26.23;15.00;;;8.90;99.90;;;;;;5117000;28;20105;-75
2021/03/04 02:16:14;;;;;;;27.30;14.63;;;8.90;99.90;;;;;;5117116;28;20051;-75
2021/03/04 02:18:49;;;;;;;27.23;14.90;;;8.90;99.90;;;;;;5105725;28;20047;-75
2021/03/04 02:21:28;;;;;;;25.27;16.48;;;8.90;99.90;;;;;;5097398;28;20180;-75
2021/03/04 02:24:12;;;;;;;25.33;15.13;;;8.90;99.90;;;;;;5115594;28;20063;-75
2021/03/04 02:27:07;;;;;;;26.98;16.02;;;8.90;99.90;;;;;;5115673;28;20047;-75
2021/03/04 02:29:58;;;;;;;28.73;16.05;;;8.90;99.90;;;;;;5115834;28;20036;-75
2021/03/04 02:32:26;;;;;;;28.15;15.93;;;8.90;99.90;;;;;;5116564;28;20156;-75
2021/03/04 02:34:58;;;;;;;34.38;18.80;;;8.90;99.90;;;;;;5116546;28;20032;-75
2021/03/04 02:37:28;;;;;;;28.35;17.85;;;8.90;99.90;;;;;;5116211;28;20436;-75
2021/03/04 02:39:56;;;;;;;30.55;16.60;;;8.90;99.90;;;;;;5116151;28;20046;-75
2021/03/04 02:42:25;;;;;;;29.73;17.40;;;8.90;99.90;;;;;;5116237;28;20043;-75
2021/03/04 02:44:54;;;;;;;29.98;17.48;;;8.90;99.90;;;;;;5116795;28;20486;-75
2021/03/04 02:47:21;;;;;;;35.30;18.58;;;8.90;99.90;;;;;;5116591;28;20078;-75
2021/03/04 02:49:47;;;;;;;35.40;18.00;;;8.90;99.90;;;;;;5116173;28;20027;-75
2021/03/04 02:52:14;;;;;;;30.45;16.50;;;8.90;99.90;;;;;;5116482;28;20487;-75
2021/03/04 02:54:41;;;;;;;25.10;15.02;;;8.90;99.90;;;;;;5115883;28;20035;-75
2021/03/04 02:57:10;;;;;;;23.33;14.63;;;8.90;99.90;;;;;;5116832;28;20107;-75
2021/03/04 02:59:38;;;;;;;23.98;14.48;;;8.80;99.90;;;;;;5116130;28;20035;-75
2021/03/04 03:02:06;;;;;;;28.05;15.25;;;8.90;99.90;;;;;;5115808;28;20046;-75
2021/03/04 03:04:34;;;;;;;26.77;15.27;;;8.80;99.90;;;;;;5115801;28;20042;-75
2021/03/04 03:07:02;;;;;;;25.70;14.25;;;8.90;99.90;;;;;;5115703;28;20057;-75
2021/03/04 03:09:29;;;;;;;31.08;13.77;;;8.90;99.90;;;;;;5115700;28;20039;-75
2021/03/04 03:11:56;;;;;;;22.65;14.68;;;8.90;99.90;;;;;;5115610;28;20032;-74
2021/03/04 03:14:22;;;;;;;25.20;14.23;;;8.90;99.90;;;;;;5115628;28;20027;-75
2021/03/04 03:16:48;;;;;;;25.08;15.35;;;8.80;99.90;;;;;;5115491;28;20054;-75
2021/03/04 03:19:13;;;;;;;32.80;17.75;;;8.80;99.90;;;;;;5098033;28;20084;-75
2021/03/04 03:21:39;;;;;;;33.28;18.33;;;8.80;99.90;;;;;;5115985;28;20031;-75
2021/03/04 03:24:06;;;;;;;32.38;16.95;;;8.80;99.90;;;;;;5115297;28;20035;-75
2021/03/04 03:26:32;;;;;;;29.52;19.08;;;8.90;99.90;;;;;;5115167;28;20043;-75
2021/03/04 03:28:58;;;;;;;31.88;17.48;;;8.90;99.90;;;;;;5115273;28;20039;-75
2021/03/04 03:31:26;;;;;;;27.40;18.90;;;8.90;99.90;;;;;;5115474;28;20028;-75
2021/03/04 03:33:54;;;;;;;30.58;18.85;;;8.90;99.90;;;;;;5115029;28;20050;-75
2021/03/04 03:36:21;;;;;;;25.85;17.50;;;8.80;99.90;;;;;;5114899;28;20428;-75
2021/03/04 03:38:49;;;;;;;32.85;19.38;;;8.90;99.90;;;;;;5115424;28;20039;-75
2021/03/04 03:41:17;;;;;;;28.65;18.42;;;8.90;99.90;;;;;;5115415;28;20049;-75
2021/03/04 03:43:44;;;;;;;28.83;17.67;;;8.90;99.90;;;;;;5114835;28;20036;-75
2021/03/04 03:46:12;;;;;;;33.47;18.80;;;8.90;99.90;;;;;;5114952;28;20585;-75
2021/03/04 03:48:39;;;;;;;27.85;17.33;;;8.80;99.90;;;;;;5115101;28;20071;-75
2021/03/04 03:51:05;;;;;;;29.77;16.85;;;8.80;99.90;;;;;;5115227;28;20043;-75
2021/03/04 03:53:32;;;;;;;33.78;17.35;;;8.80;99.90;;;;;;5115058;28;20486;-75
2021/03/04 03:55:58;;;;;;;29.90;17.38;;;8.80;99.90;;;;;;5115168;28;20044;-75
2021/03/04 03:58:26;;;;;;;26.90;16.23;;;8.80;99.90;;;;;;5114919;28;20042;-75
2021/03/04 04:00:56;;;;;;;24.88;16.30;;;8.80;99.90;;;;;;5114767;28;20119;-75
2021/03/04 04:03:24;;;;;;;29.20;17.17;;;8.80;99.90;;;;;;5115050;28;20039;-75
2021/03/04 04:05:50;;;;;;;31.35;16.02;;;8.70;99.90;;;;;;5114798;28;20056;-75
2021/03/04 04:08:18;;;;;;;26.60;16.25;;;8.70;99.90;;;;;;5114716;28;20050;-75
2021/03/04 04:10:48;;;;;;;26.00;17.33;;;8.70;99.90;;;;;;5114802;28;20036;-75
2021/03/04 04:13:15;;;;;;;32.80;16.55;;;8.70;99.90;;;;;;5114507;28;20035;-75
2021/03/04 04:15:41;;;;;;;28.73;17.48;;;8.70;99.90;;;;;;5114306;28;20510;-75
2021/03/04 04:18:08;;;;;;;29.20;16.58;;;8.70;99.90;;;;;;5114997;28;20051;-75
2021/03/04 04:20:35;;;;;;;35.03;18.73;;;8.70;99.90;;;;;;5114879;28;20039;-75
2021/03/04 04:23:01;;;;;;;34.65;19.05;;;8.60;99.90;;;;;;5114818;28;20168;-75
2021/03/04 04:25:27;;;;;;;30.23;17.25;;;8.70;99.90;;;;;;5114501;28;20088;-75
2021/03/04 04:27:55;;;;;;;28.77;16.90;;;8.80;99.90;;;;;;5114566;28;20130;-75
2021/03/04 04:30:25;;;;;;;27.92;17.10;;;8.80;99.90;;;;;;5114929;28;20043;-75
2021/03/04 04:32:52;;;;;;;32.70;15.93;;;8.70;99.90;;;;;;5115134;28;20045;-75
2021/03/04 04:35:18;;;;;;;26.40;15.20;;;8.70;99.90;;;;;;5114853;28;20036;-75
2021/03/04 04:37:44;;;;;;;29.67;15.80;;;8.70;99.90;;;;;;5114510;28;20541;-75
2021/03/04 04:40:11;;;;;;;29.55;15.90;;;8.70;99.90;;;;;;5114323;28;20053;-75
2021/03/04 04:42:38;;;;;;;28.75;15.32;;;8.70;99.90;;;;;;5114510;28;20040;-75
2021/03/04 04:45:07;;;;;;;23.70;14.88;;;8.70;99.90;;;;;;5114612;28;20118;-75
2021/03/04 04:47:33;;;;;;;25.23;15.27;;;8.70;99.90;;;;;;5114558;28;20073;-75
2021/03/04 04:49:58;;;;;;;33.13;15.73;;;8.70;99.90;;;;;;5116990;28;20035;-75
2021/03/04 04:52:24;;;;;;;33.03;16.20;;;8.70;99.90;;;;;;5118708;28;20494;-75
2021/03/04 04:54:50;;;;;;;27.33;15.70;;;8.70;99.90;;;;;;5118085;28;20042;-75
2021/03/04 04:57:16;;;;;;;23.55;15.18;;;8.70;99.90;;;;;;5118329;28;20039;-75
2021/03/04 04:59:42;;;;;;;22.55;14.93;;;8.70;99.90;;;;;;5118450;28;20063;-75
2021/03/04 05:02:08;;;;;;;26.08;14.27;;;8.70;99.90;;;;;;5118708;28;20394;-75
2021/03/04 05:04:33;;;;;;;25.70;14.93;;;8.80;99.90;;;;;;5118313;28;20110;-75
2021/03/04 05:06:59;;;;;;;34.45;16.42;;;8.80;99.90;;;;;;5118610;28;20039;-75
2021/03/04 05:09:26;;;;;;;25.13;15.65;;;8.70;99.90;;;;;;5118366;28;20043;-75
2021/03/04 05:11:51;;;;;;;25.92;14.23;;;8.70;99.90;;;;;;5118505;28;20150;-75
2021/03/04 05:14:17;;;;;;;24.75;14.48;;;8.70;99.90;;;;;;5118053;28;20078;-75
2021/03/04 05:16:43;;;;;;;25.88;15.77;;;8.80;99.90;;;;;;5116522;28;20577;-75
2021/03/04 05:19:09;;;;;;;25.05;15.52;;;8.80;99.90;;;;;;5116418;28;20550;-75
2021/03/04 05:21:35;;;;;;;31.90;16.63;;;8.70;99.90;;;;;;5117314;28;20047;-76
2021/03/04 05:24:01;;;;;;;30.85;16.27;;;8.70;99.90;;;;;;5117360;28;20382;-75
2021/03/04 05:26:27;;;;;;;40.03;15.77;;;8.80;99.90;;;;;;5114129;28;20052;-76
2021/03/04 05:28:52;;;;;;;28.58;17.05;;;8.80;99.90;;;;;;5115437;28;20666;-75
2021/03/04 05:31:18;;;;;;;35.42;16.75;;;8.80;99.90;;;;;;5116050;28;20122;-75
2021/03/04 05:33:44;;;;;;;24.75;15.60;;;8.80;99.90;;;;;;5117670;28;20043;-75
2021/03/04 05:36:10;;;;;;;28.90;16.88;;;8.90;99.90;;;;;;5117882;28;20040;-76
2021/03/04 05:38:36;;;;;;;30.70;15.27;;;8.90;99.90;;;;;;5118060;28;20122;-75
2021/03/04 05:41:02;;;;;;;23.95;14.65;;;8.90;99.90;;;;;;5117010;28;20131;-75
2021/03/04 05:43:28;;;;;;;25.58;14.98;;;8.80;99.90;;;;;;5117419;28;20035;-75
2021/03/04 05:45:56;;;;;;;29.20;15.27;;;8.70;99.90;;;;;;5114991;28;20043;-76
2021/03/04 05:48:25;;;;;;;32.08;16.27;;;8.80;99.90;;;;;;5110525;28;20106;-75
2021/03/04 05:50:52;;;;;;;28.17;16.35;;;8.80;99.90;;;;;;5112421;28;20047;-75
2021/03/04 05:53:21;;;;;;;28.23;17.55;;;8.80;99.90;;;;;;5116318;28;20096;-75
2021/03/04 05:55:48;;;;;;;37.80;17.92;;;8.80;99.90;;;;;;5116633;28;20112;-75
2021/03/04 05:58:15;;;;;;;31.17;16.40;;;8.80;99.90;;;;;;5116479;28;20036;-75
2021/03/04 06:00:42;;;;;;;32.60;16.33;;;8.80;99.90;;;;;;5114350;28;20072;-75
2021/03/04 06:03:08;;;;;;;35.72;16.92;;;8.80;99.90;;;;;;5112014;28;20140;-74
2021/03/04 06:05:35;;;;;;;28.90;16.58;;;8.80;99.90;;;;;;5113725;28;20043;-75
2021/03/04 06:08:06;;;;;;;33.92;18.23;;;8.80;99.90;;;;;;5096219;28;20058;-75
2021/03/04 06:10:33;;;;;;;44.50;21.13;;;8.80;99.90;;;;;;5115631;28;20036;-75
2021/03/04 06:12:59;;;;;;;38.28;18.90;;;8.90;99.90;;;;;;5115458;28;20478;-75
2021/03/04 06:15:27;;;;;;;39.05;16.98;;;8.80;99.90;;;;;;5116575;28;20032;-75
2021/03/04 06:17:54;;;;;;;33.20;17.92;;;8.90;99.90;;;;;;5117331;28;20051;-75
2021/03/04 06:20:20;;;;;;;31.98;18.48;;;8.80;99.90;;;;;;5116632;28;20045;-75
2021/03/04 06:22:47;;;;;;;32.60;18.35;;;8.80;99.90;;;;;;5117148;28;20044;-74
2021/03/04 06:25:14;;;;;;;42.38;20.15;;;8.90;99.90;;;;;;5116749;28;20122;-75
2021/03/04 06:27:45;;;;;;;44.90;22.08;;;8.90;99.90;;;;;;5116875;28;20078;-74
2021/03/04 06:30:16;;;;;;;31.92;17.15;;;8.90;99.90;;;;;;5115955;28;20096;-74
2021/03/04 06:32:56;;;;;;;37.22;16.88;;;8.90;99.90;;;;;;5115769;28;20075;-74
2021/03/04 06:35:24;;;;;;;32.75;15.60;;;8.80;99.90;;;;;;5115661;28;20439;-74
2021/03/04 06:37:51;;;;;;;30.27;14.85;;;8.90;99.90;;;;;;5114920;28;20063;-75
2021/03/04 06:40:24;;;;;;;28.20;14.60;;;8.80;99.90;;;;;;5115725;28;20040;-74
2021/03/04 06:42:50;;;;;;;22.40;14.18;;;8.90;99.90;;;;;;5116757;28;20035;-74
2021/03/04 06:45:36;;;;;;;25.88;13.10;;;8.90;99.90;;;;;;5116325;28;20112;-74
2021/03/04 06:48:14;;;;;;;27.38;12.45;;;8.90;99.90;;;;;;5115991;28;20455;-75
2021/03/04 06:50:49;;;;;;;23.25;14.43;;;8.90;99.90;;;;;;5116462;28;20088;-74
2021/03/04 06:53:19;;;;;;;28.73;17.23;;;8.90;99.90;;;;;;5116691;28;20106;-74
2021/03/04 06:55:56;;;;;;;27.02;14.95;;;8.90;99.90;;;;;;5114497;28;20390;-75
2021/03/04 06:58:30;;;;;;;26.58;15.15;;;9.10;99.90;;;;;;5114674;28;20043;-74
2021/03/04 07:01:03;;;;;;;32.10;15.32;;;9.10;99.90;;;;;;5114630;28;20032;-74
2021/03/04 07:03:43;;;;;;;33.88;15.98;;;9.10;99.90;;;;;;5112224;28;20044;-75
2021/03/04 07:06:15;;;;;;;31.13;16.27;;;9.20;99.90;;;;;;5112018;28;20044;-75
2021/03/04 07:08:42;;;;;;;29.92;15.65;;;9.20;99.90;;;;;;5114903;28;20078;-74
2021/03/04 07:11:10;;;;;;;24.13;14.55;;;9.20;99.90;;;;;;5114595;28;20036;-74
2021/03/04 07:13:38;;;;;;;24.83;15.07;;;9.30;99.90;;;;;;5104441;28;20094;-74
2021/03/04 07:16:09;;;;;;;30.08;15.38;;;9.30;99.90;;;;;;5113258;28;20035;-74
2021/03/04 07:18:41;;;;;;;28.33;14.93;;;9.30;99.90;;;;;;5113751;28;20524;-74
2021/03/04 07:21:10;;;;;;;34.85;15.43;;;9.40;99.90;;;;;;5132843;27;20039;-73
2021/03/04 07:23:41;;;;;;;34.90;15.93;;;9.40;99.90;;;;;;5134151;27;20047;-74
2021/03/04 07:26:08;;;;;;;31.10;15.15;;;9.50;99.90;;;;;;5133386;27;20115;-74
2021/03/04 07:28:39;;;;;;;35.15;14.85;;;9.60;99.90;;;;;;5134193;27;20051;-74
2021/03/04 07:31:06;;;;;;;30.52;17.02;;;9.70;99.90;;;;;;5133718;27;20031;-74
2021/03/04 07:33:35;;;;;;;38.70;18.20;;;9.80;99.90;;;;;;5114020;28;20035;-74
2021/03/04 07:36:05;;;;;;;39.03;19.60;;;9.80;99.90;;;;;;5112748;28;20398;-74
2021/03/04 07:38:32;;;;;;;37.33;18.85;;;9.80;99.90;;;;;;5113217;28;20039;-74
2021/03/04 07:41:13;;;;;;;31.63;16.02;;;9.80;99.90;;;;;;5113350;28;20040;-74
2021/03/04 07:43:58;;;;;;;;;;;9.80;99.90;;;;;;5113456;28;20039;-74
2021/03/04 07:46:39;;;;;;;37.15;20.52;;;9.90;99.90;;;;;;5112515;28;20389;-74
2021/03/04 07:49:07;;;;;;;31.27;15.75;;;10.00;99.90;;;;;;5113092;28;20084;-74
2021/03/04 07:51:46;;;;;;;41.50;24.63;;;10.10;99.90;;;;;;5094041;28;20039;-74
2021/03/04 07:54:13;;;;;;;30.42;16.85;;;10.10;99.90;;;;;;5112840;28;20096;-73
2021/03/04 07:56:39;;;;;;;39.08;23.27;;;10.20;99.90;;;;;;5112145;28;20514;-73
2021/03/04 07:59:14;;;;;;;31.27;18.73;;;10.10;99.90;;;;;;5113712;28;20120;-73
2021/03/04 08:01:55;;;;;;;32.70;19.23;;;10.10;99.90;;;;;;5113238;28;20151;-73
2021/03/04 08:04:21;;;;;;;;;;;10.10;99.90;;;;;;5114377;28;20043;-74
2021/03/04 08:06:48;;;;;;;26.48;16.67;;;10.20;99.90;;;;;;5112468;28;19919;-76
2021/03/04 08:09:44;;;;;;;31.60;17.08;;;10.10;99.90;;;;;;5127662;27;20115;-77
2021/03/04 08:12:11;;;;;;;32.28;19.08;;;10.10;99.90;;;;;;5111223;28;20045;-77
2021/03/04 08:14:40;;;;;;;33.05;18.15;;;10.20;99.90;;;;;;5133559;28;20039;-77
2021/03/04 08:17:06;;;;;;;29.23;15.38;;;10.30;99.90;;;;;;5134154;28;20050;-77
2021/03/04 08:19:34;;;;;;;32.80;16.65;;;10.20;99.90;;;;;;5134215;28;20123;-77
2021/03/04 08:22:07;;;;;;;26.73;16.85;;;10.20;99.90;;;;;;5117063;28;20044;-74
2021/03/04 08:24:36;;;;;;;32.38;17.83;;;10.30;99.90;;;;;;5117024;28;20139;-74
2021/03/04 08:27:03;;;;;;;33.28;17.60;;;10.50;99.90;;;;;;5117237;28;20093;-74
2021/03/04 08:29:30;;;;;;;26.42;15.13;;;10.60;99.90;;;;;;5116099;28;20031;-76
2021/03/04 08:31:59;;;;;;;31.55;15.43;;;10.70;99.90;;;;;;5115822;28;20148;-76
2021/03/04 08:34:37;;;;;;;26.33;13.95;;;10.80;99.90;;;;;;5115876;28;20159;-76
2021/03/04 08:37:04;;;;;;;26.70;14.80;;;11.00;99.90;;;;;;5115886;28;20096;-76
2021/03/04 08:39:32;;;;;;;24.88;13.20;;;11.20;99.90;;;;;;5116010;28;20043;-76
2021/03/04 08:42:08;;;;;;;35.20;16.40;;;11.20;99.90;;;;;;5116034;28;20051;-77
2021/03/04 08:44:34;;;;;;;34.47;16.65;;;11.30;99.90;;;;;;5113819;28;20165;-77
2021/03/04 08:47:01;;;;;;;24.40;12.88;;;11.40;99.90;;;;;;5115742;28;20047;-76
2021/03/04 08:49:27;;;;;;;21.25;12.60;;;11.30;99.90;;;;;;5115865;28;20051;-74
2021/03/04 08:51:56;;;;;;;17.85;9.85;;;11.60;99.90;;;;;;5115917;28;20083;-75
2021/03/04 08:54:29;;;;;;;25.40;12.02;;;11.70;99.90;;;;;;5115594;28;20044;-74
2021/03/04 08:57:03;;;;;;;24.05;11.98;;;11.70;99.90;;;;;;5113139;28;20055;-75
2021/03/04 08:59:29;;;;;;;25.75;11.02;;;11.90;99.90;;;;;;5115448;28;20088;-74
2021/03/04 09:01:55;;;;;;;27.95;12.82;;;12.00;99.90;;;;;;5115593;28;20055;-73
2021/03/04 09:04:27;;;;;;;26.52;13.93;;;12.20;99.90;;;;;;5114582;28;20038;-75
2021/03/04 09:06:54;;;;;;;20.98;9.32;;;12.30;99.90;;;;;;5115245;28;20062;-75
2021/03/04 09:09:26;;;;;;;23.73;11.05;;;12.20;99.90;;;;;;5094801;28;20044;-74
2021/03/04 09:11:53;;;;;;;26.27;10.90;;;12.30;99.90;;;;;;5115712;28;20425;-74
2021/03/04 09:14:32;;;;;;;23.95;9.82;;;12.40;99.90;;;;;;5115427;28;20023;-74
2021/03/04 09:17:04;;;;;;;28.25;11.85;;;12.40;99.90;;;;;;5097100;28;20146;-74
2021/03/04 09:19:33;;;;;;;24.55;10.25;;;12.30;99.90;;;;;;5115333;28;20123;-75
2021/03/04 09:22:04;;;;;;;21.02;10.20;;;12.50;99.90;;;;;;5097176;28;20490;-75
2021/03/04 09:24:32;;;;;;;;;;;12.30;99.90;;;;;;5115662;28;20444;-75
2021/03/04 09:27:02;;;;;;;17.35;8.20;;;12.40;99.90;;;;;;5114861;28;19924;-75
2021/03/04 09:29:29;;;;;;;19.85;9.48;;;12.50;99.90;;;;;;5097058;28;20085;-75
2021/03/04 09:31:56;;;;;;;19.55;9.60;;;12.30;99.90;;;;;;5097457;28;20070;-75
2021/03/04 09:34:47;;;;;;;18.05;8.35;;;12.30;99.90;;;;;;5116220;28;20042;-76
2021/03/04 09:37:14;;;;;;;18.98;9.93;;;12.30;99.90;;;;;;5091493;28;20495;-76
2021/03/04 09:39:46;;;;;;;18.50;10.30;;;12.30;99.90;;;;;;5079674;28;20036;-75
2021/03/04 09:42:21;;;;;;;22.48;8.95;;;12.60;99.90;;;;;;5077721;28;20028;-75
2021/03/04 09:44:55;;;;;;;24.20;8.75;;;12.50;99.90;;;;;;5112544;28;20036;-74
2021/03/04 09:47:30;;;;;;;20.33;9.45;;;12.80;99.90;;;;;;5114697;28;20088;-75
2021/03/04 09:50:00;;;;;;;19.65;10.40;;;12.50;99.90;;;;;;5115250;28;20108;-74
2021/03/04 09:52:28;;;;;;;21.98;9.57;;;12.70;99.90;;;;;;5114538;28;20039;-74
2021/03/04 09:55:15;;;;;;;26.27;12.02;;;12.70;99.90;;;;;;5114961;28;20152;-74
2021/03/04 09:57:42;;;;;;;20.38;9.07;;;12.40;99.90;;;;;;5112678;28;20046;-76
2021/03/04 10:00:29;;;;;;;22.73;8.88;;;12.70;99.90;;;;;;5114753;28;20047;-75
2021/03/04 10:02:56;;;;;;;22.33;10.07;;;13.10;99.90;;;;;;5115083;28;20083;-76
2021/03/04 10:05:26;;;;;;;20.15;9.63;;;13.00;99.90;;;;;;5097248;28;20043;-76
2021/03/04 10:07:57;;;;;;;17.02;9.98;;;12.90;99.90;;;;;;5114720;28;20086;-75
2021/03/04 10:10:23;;;;;;;19.63;9.57;;;13.00;99.90;;;;;;5091281;28;20056;-75
2021/03/04 10:12:58;;;;;;;16.50;8.95;;;13.30;99.90;;;;;;5114668;28;20031;-73
2021/03/04 10:15:37;;;;;;;19.15;9.57;;;13.40;99.90;;;;;;5096904;28;20039;-74
2021/03/04 10:18:13;;;;;;;24.23;9.65;;;13.50;99.90;;;;;;5115407;28;20047;-75
2021/03/04 10:20:44;;;;;;;25.15;9.00;;;13.70;99.90;;;;;;5095973;28;20561;-75
2021/03/04 10:23:12;;;;;;;20.08;8.20;;;13.50;99.90;;;;;;5114716;28;20044;-75
2021/03/04 10:25:38;;;;;;;21.40;9.15;;;13.50;99.90;;;;;;5096443;28;20069;-75
2021/03/04 10:28:04;;;;;;;19.45;9.07;;;13.50;99.90;;;;;;5113235;28;20051;-74
2021/03/04 10:30:32;;;;;;;20.67;8.43;;;13.40;99.90;;;;;;5095879;28;20393;-74
2021/03/04 10:33:00;;;;;;;21.58;7.63;;;13.60;99.90;;;;;;5114317;28;20082;-74
2021/03/04 10:35:26;;;;;;;27.20;8.68;;;13.70;99.90;;;;;;5096196;28;20128;-74
2021/03/04 10:37:52;;;;;;;18.98;9.23;;;13.50;99.90;;;;;;5114005;28;20529;-75
2021/03/04 10:40:20;;;;;;;22.73;8.10;;;13.50;99.90;;;;;;5114014;28;20127;-75
2021/03/04 10:42:46;;;;;;;23.67;8.55;;;13.40;99.90;;;;;;5113714;28;20590;-76
2021/03/04 10:45:21;;;;;;;22.90;8.90;;;13.50;99.90;;;;;;5095408;28;20059;-77
2021/03/04 10:47:48;;;;;;;24.48;10.27;;;13.70;99.90;;;;;;5110212;28;20059;-76
2021/03/04 10:50:18;;;;;;;34.72;13.52;;;13.30;99.90;;;;;;5095221;28;20040;-76
2021/03/04 10:52:44;;;;;;;26.70;11.00;;;13.40;99.90;;;;;;5111078;28;20051;-77
2021/03/04 10:55:11;;;;;;;27.20;10.10;;;13.30;99.90;;;;;;5113465;28;20031;-76
2021/03/04 10:57:39;;;;;;;31.77;10.85;;;13.30;99.90;;;;;;5077866;28;20578;-77
2021/03/04 11:00:07;;;;;;;27.92;11.50;;;13.10;99.90;;;;;;5095077;28;20034;-78
2021/03/04 11:02:33;;;;;;;24.88;9.85;;;13.10;99.90;;;;;;5113273;28;20036;-76
2021/03/04 11:04:59;;;;;;;28.25;10.60;;;13.70;99.90;;;;;;5113327;28;20532;-75
2021/03/04 11:07:25;;;;;;;21.60;8.93;;;13.70;99.90;;;;;;5113568;28;20039;-76
2021/03/04 11:09:53;;;;;;;34.95;9.95;;;13.50;99.90;;;;;;5113511;28;20127;-76
2021/03/04 11:12:20;;;;;;;22.60;9.43;;;13.80;99.90;;;;;;5114000;28;20130;-76
2021/03/04 11:14:46;;;;;;;21.95;11.15;;;14.10;99.90;;;;;;5113853;28;20039;-76
2021/03/04 11:17:13;;;;;;;28.42;9.93;;;14.40;99.90;;;;;;5113909;28;20401;-75
2021/03/04 11:19:39;;;;;;;32.58;9.13;;;14.10;99.90;;;;;;5112975;28;20036;-76
2021/03/04 11:22:09;;;;;;;26.17;9.60;;;14.50;99.90;;;;;;5108458;28;20039;-77
2021/03/04 11:24:35;;;;;;;26.00;10.27;;;14.60;99.90;;;;;;5094305;28;20061;-77
2021/03/04 11:27:02;;;;;;;31.83;9.98;;;14.20;99.90;;;;;;5112987;28;20126;-76
2021/03/04 11:29:28;;;;;;;29.15;10.35;;;14.30;99.90;;;;;;5113393;28;20035;-76
2021/03/04 11:31:54;;;;;;;28.48;10.02;;;14.70;99.90;;;;;;5112994;28;20131;-75
2021/03/04 11:34:19;;;;;;;30.17;9.48;;;14.50;99.90;;;;;;5113471;28;20551;-75
2021/03/04 11:36:45;;;;;;;27.02;10.45;;;14.00;99.90;;;;;;5113846;28;20104;-76
2021/03/04 11:39:11;;;;;;;27.90;8.80;;;14.30;99.90;;;;;;5110820;28;20038;-76
2021/03/04 11:41:37;;;;;;;28.98;9.45;;;14.80;99.90;;;;;;5113655;28;20047;-75
2021/03/04 11:44:03;;;;;;;26.00;10.18;;;14.90;99.90;;;;;;5113404;28;20118;-76
2021/03/04 11:46:29;;;;;;;35.05;10.32;;;15.10;99.90;;;;;;5113217;28;20506;-75
2021/03/04 11:48:55;;;;;;;29.60;10.43;;;14.70;99.90;;;;;;5113325;28;20047;-75
2021/03/04 11:51:21;;;;;;;21.67;9.20;;;14.70;99.90;;;;;;5113061;28;20046;-75
2021/03/04 11:53:47;;;;;;;40.83;11.07;;;14.60;99.90;;;;;;5113479;28;20048;-75
2021/03/04 11:56:13;;;;;;;25.80;9.32;;;14.40;99.90;;;;;;5113402;28;20028;-75
2021/03/04 11:58:40;;;;;;;35.72;10.20;;;14.60;99.90;;;;;;5112704;28;20039;-75
2021/03/04 12:01:06;;;;;;;37.17;11.07;;;14.50;99.90;;;;;;5112781;28;20148;-75
2021/03/04 12:03:31;;;;;;;27.83;9.13;;;14.50;99.90;;;;;;5113244;28;20118;-76
2021/03/04 12:05:58;;;;;;;30.63;10.60;;;14.70;99.90;;;;;;5112713;28;20050;-78
2021/03/04 12:08:25;;;;;;;36.10;9.48;;;14.90;99.90;;;;;;5119989;27;20070;-78
2021/03/04 12:10:50;;;;;;;33.30;10.23;;;14.80;99.90;;;;;;5133456;27;20039;-78
2021/03/04 12:13:16;;;;;;;25.00;8.75;;;14.80;99.90;;;;;;5133023;28;20042;-78
2021/03/04 12:15:42;;;;;;;39.17;10.20;;;14.90;99.90;;;;;;5133092;28;20043;-78
2021/03/04 12:18:09;;;;;;;31.83;9.88;;;14.60;99.90;;;;;;5133241;28;20042;-78
2021/03/04 12:20:35;;;;;;;32.92;9.95;;;14.00;99.90;;;;;;5133173;28;20091;-78
2021/03/04 12:23:01;;;;;;;29.58;10.05;;;14.10;99.90;;;;;;5133460;28;20046;-78
2021/03/04 12:25:27;;;;;;;27.98;9.68;;;14.00;99.90;;;;;;5132989;28;20054;-77
2021/03/04 12:27:54;;;;;;;36.92;10.68;;;13.90;99.90;;;;;;5133143;28;20043;-77
2021/03/04 12:30:21;;;;;;;34.60;9.77;;;13.90;99.90;;;;;;5133045;28;20095;-76
2021/03/04 12:32:47;;;;;;;34.72;11.63;;;14.10;99.90;;;;;;5126640;28;20031;-76
2021/03/04 12:35:14;;;;;;;37.13;10.23;;;14.00;99.90;;;;;;5022231;27;20057;-77
2021/03/04 12:37:41;;;;;;;33.55;10.23;;;14.20;99.90;;;;;;5030224;28;20416;-75
2021/03/04 12:40:08;;;;;;;40.10;11.30;;;14.50;99.90;;;;;;5031286;28;20046;-76
2021/03/04 12:42:34;;;;;;;31.17;9.55;;;14.70;99.90;;;;;;5031737;28;20063;-78